sensor_id;sensor_type;location;lat;lon;timestamp;pressure;altitude;pressure_sealevel;temperature;humidity
7930;BME280;4010;42.698;23.124;2023-05-14T00:02:16;118349.16;;;-140.64;100.00
7930;BME280;4010;42.698;23.124;2023-05-14T00:04:43;118349.16;;;-140.64;100.00
7930;BME280;4010;42.698;23.124;2023-05-14T00:07:09;118349.16;;;-140.64;100.00
7930;BME280;4010;42.698;23.124;2023-05-14T00:09:36;118349.16;;;-140.64;100.00
7930;BME280;4010;42.698;23.124;2023-05-14T00:12:03;118349.16;;;-140.64;100.00
7930;BME280;4010;42.698;23.124;2023-05-14T00:14:30;118349.16;;;-140.64;100.00
7930;BME280;4010;42.698;23.124;2023-05-14T00:16:57;118349.16;;;-140.64;100.00
7930;BME280;4010;42.698;23.124;2023-05-14T00:19:25;118349.16;;;-140.64;100.00
7930;BME280;4010;42.698;23.124;2023-05-14T00:21:52;118349.16;;;-140.64;100.00
7930;BME280;4010;42.698;23.124;2023-05-14T00:24:18;118349.16;;;-140.64;100.00
7930;BME280;4010;42.698;23.124;2023-05-14T00:26:45;118349.16;;;-140.64;100.00
7930;BME280;4010;42.698;23.124;2023-05-14T00:29:11;118349.16;;;-140.64;100.00
7930;BME280;4010;42.698;23.124;2023-05-14T00:31:38;118349.16;;;-140.64;100.00
7930;BME280;4010;42.698;23.124;2023-05-14T00:34:05;118349.16;;;-140.64;100.00
7930;BME280;4010;42.698;23.124;2023-05-14T00:36:33;118349.16;;;-140.64;100.00
7930;BME280;4010;42.698;23.124;2023-05-14T00:38:59;118349.16;;;-140.64;100.00
7930;BME280;4010;42.698;23.124;2023-05-14T00:41:26;118349.16;;;-140.64;100.00
7930;BME280;4010;42.698;23.124;2023-05-14T00:43:53;118349.16;;;-140.64;100.00
7930;BME280;4010;42.698;23.124;2023-05-14T00:46:19;118349.16;;;-140.64;100.00
7930;BME280;4010;42.698;23.124;2023-05-14T00:48:46;118349.16;;;-140.64;100.00
7930;BME280;4010;42.698;23.124;2023-05-14T00:51:13;118349.16;;;-140.64;100.00
7930;BME280;4010;42.698;23.124;2023-05-14T00:53:42;118349.16;;;-140.64;100.00
7930;BME280;4010;42.698;23.124;2023-05-14T00:56:09;118349.16;;;-140.64;100.00
7930;BME280;4010;42.698;23.124;2023-05-14T00:58:36;118349.16;;;-140.64;100.00
7930;BME280;4010;42.698;23.124;2023-05-14T01:01:02;118349.16;;;-140.64;100.00
7930;BME280;4010;42.698;23.124;2023-05-14T01:03:29;118349.16;;;-140.64;100.00
7930;BME280;4010;42.698;23.124;2023-05-14T01:06:00;118349.16;;;-140.64;100.00
7930;BME280;4010;42.698;23.124;2023-05-14T01:08:35;118349.16;;;-140.64;100.00
7930;BME280;4010;42.698;23.124;2023-05-14T01:11:17;118349.16;;;-140.64;100.00
7930;BME280;4010;42.698;23.124;2023-05-14T01:13:50;118349.16;;;-140.64;100.00
7930;BME280;4010;42.698;23.124;2023-05-14T01:16:25;118349.16;;;-140.64;100.00
7930;BME280;4010;42.698;23.124;2023-05-14T01:18:53;118349.16;;;-140.64;100.00
7930;BME280;4010;42.698;23.124;2023-05-14T01:21:35;118349.16;;;-140.64;100.00
7930;BME280;4010;42.698;23.124;2023-05-14T01:24:03;118349.16;;;-140.64;100.00
7930;BME280;4010;42.698;23.124;2023-05-14T01:26:29;118349.16;;;-140.64;100.00
7930;BME280;4010;42.698;23.124;2023-05-14T01:29:00;118349.16;;;-140.64;100.00
7930;BME280;4010;42.698;23.124;2023-05-14T01:31:30;118349.16;;;-140.64;100.00
7930;BME280;4010;42.698;23.124;2023-05-14T01:33:59;118349.16;;;-140.64;100.00
7930;BME280;4010;42.698;23.124;2023-05-14T01:36:29;118349.16;;;-140.64;100.00
7930;BME280;4010;42.698;23.124;2023-05-14T01:38:57;118349.16;;;-140.64;100.00
7930;BME280;4010;42.698;23.124;2023-05-14T01:41:26;118349.16;;;-140.64;100.00
7930;BME280;4010;42.698;23.124;2023-05-14T01:43:54;118349.16;;;-140.64;100.00
7930;BME280;4010;42.698;23.124;2023-05-14T01:46:21;118349.16;;;-140.64;100.00
7930;BME280;4010;42.698;23.124;2023-05-14T01:48:49;118349.16;;;-140.64;100.00
7930;BME280;4010;42.698;23.124;2023-05-14T01:51:16;118349.16;;;-140.64;100.00
7930;BME280;4010;42.698;23.124;2023-05-14T01:53:44;118349.16;;;-140.64;100.00
7930;BME280;4010;42.698;23.124;2023-05-14T01:56:10;118349.16;;;-140.64;100.00
7930;BME280;4010;42.698;23.124;2023-05-14T01:58:37;118349.16;;;-140.64;100.00
7930;BME280;4010;42.698;23.124;2023-05-14T02:01:04;118349.16;;;-140.64;100.00
7930;BME280;4010;42.698;23.124;2023-05-14T02:03:30;118349.16;;;-140.64;100.00
7930;BME280;4010;42.698;23.124;2023-05-14T02:05:57;118349.16;;;-140.64;100.00
7930;BME280;4010;42.698;23.124;2023-05-14T02:08:23;118349.16;;;-140.64;100.00
7930;BME280;4010;42.698;23.124;2023-05-14T02:10:51;118349.16;;;-140.64;100.00
7930;BME280;4010;42.698;23.124;2023-05-14T02:13:18;118349.16;;;-140.64;100.00
7930;BME280;4010;42.698;23.124;2023-05-14T02:15:45;118349.16;;;-140.64;100.00
7930;BME280;4010;42.698;23.124;2023-05-14T02:18:11;118349.16;;;-140.64;100.00
7930;BME280;4010;42.698;23.124;2023-05-14T02:20:38;118349.16;;;-140.64;100.00
7930;BME280;4010;42.698;23.124;2023-05-14T02:23:05;118349.16;;;-140.64;100.00
7930;BME280;4010;42.698;23.124;2023-05-14T02:25:32;118349.16;;;-140.64;100.00
7930;BME280;4010;42.698;23.124;2023-05-14T02:28:00;118349.16;;;-140.64;100.00
7930;BME280;4010;42.698;23.124;2023-05-14T02:30:26;118349.16;;;-140.64;100.00
7930;BME280;4010;42.698;23.124;2023-05-14T02:32:54;118349.16;;;-140.64;100.00
7930;BME280;4010;42.698;23.124;2023-05-14T02:35:21;118349.16;;;-140.64;100.00
7930;BME280;4010;42.698;23.124;2023-05-14T02:37:47;118349.16;;;-140.64;100.00
7930;BME280;4010;42.698;23.124;2023-05-14T02:40:14;118349.16;;;-140.64;100.00
7930;BME280;4010;42.698;23.124;2023-05-14T02:42:41;118349.16;;;-140.64;100.00
7930;BME280;4010;42.698;23.124;2023-05-14T02:45:09;118349.16;;;-140.64;100.00
7930;BME280;4010;42.698;23.124;2023-05-14T02:47:36;118349.16;;;-140.64;100.00
7930;BME280;4010;42.698;23.124;2023-05-14T02:50:04;118349.16;;;-140.64;100.00
7930;BME280;4010;42.698;23.124;2023-05-14T02:52:31;118349.16;;;-140.64;100.00
7930;BME280;4010;42.698;23.124;2023-05-14T02:54:57;118349.16;;;-140.64;100.00
7930;BME280;4010;42.698;23.124;2023-05-14T02:57:24;118349.16;;;-140.64;100.00
7930;BME280;4010;42.698;23.124;2023-05-14T02:59:50;118349.16;;;-140.64;100.00
7930;BME280;4010;42.698;23.124;2023-05-14T03:02:18;118349.16;;;-140.64;100.00
7930;BME280;4010;42.698;23.124;2023-05-14T03:04:45;118349.16;;;-140.64;100.00
7930;BME280;4010;42.698;23.124;2023-05-14T03:07:12;118349.16;;;-140.64;100.00
7930;BME280;4010;42.698;23.124;2023-05-14T03:09:39;118349.16;;;-140.64;100.00
7930;BME280;4010;42.698;23.124;2023-05-14T03:12:06;118349.16;;;-140.64;100.00
7930;BME280;4010;42.698;23.124;2023-05-14T03:14:33;118349.16;;;-140.64;100.00
7930;BME280;4010;42.698;23.124;2023-05-14T03:17:00;118349.16;;;-140.64;100.00
7930;BME280;4010;42.698;23.124;2023-05-14T03:19:29;118349.16;;;-140.64;100.00
7930;BME280;4010;42.698;23.124;2023-05-14T03:21:56;118349.16;;;-140.64;100.00
7930;BME280;4010;42.698;23.124;2023-05-14T03:24:22;118349.16;;;-140.64;100.00
7930;BME280;4010;42.698;23.124;2023-05-14T03:26:49;118349.16;;;-140.64;100.00
7930;BME280;4010;42.698;23.124;2023-05-14T03:29:16;118349.16;;;-140.64;100.00
7930;BME280;4010;42.698;23.124;2023-05-14T03:31:42;118349.16;;;-140.64;100.00
7930;BME280;4010;42.698;23.124;2023-05-14T03:34:09;118042.53;;;-140.64;100.00
7930;BME280;4010;42.698;23.124;2023-05-14T03:36:37;112297.66;;;-140.64;100.00
7930;BME280;4010;42.698;23.124;2023-05-14T03:39:04;116378.13;;;-140.64;100.00
7930;BME280;4010;42.698;23.124;2023-05-14T03:41:31;118349.16;;;-140.64;100.00
7930;BME280;4010;42.698;23.124;2023-05-14T03:43:58;118349.16;;;-140.64;100.00
7930;BME280;4010;42.698;23.124;2023-05-14T03:46:24;116450.13;;;-140.64;100.00
7930;BME280;4010;42.698;23.124;2023-05-14T03:48:51;117966.38;;;-140.64;100.00
7930;BME280;4010;42.698;23.124;2023-05-14T03:51:18;118349.16;;;-140.64;100.00
7930;BME280;4010;42.698;23.124;2023-05-14T03:53:46;118349.16;;;-140.64;100.00
7930;BME280;4010;42.698;23.124;2023-05-14T03:56:12;118349.16;;;-140.64;100.00
7930;BME280;4010;42.698;23.124;2023-05-14T03:58:39;117499.28;;;-140.64;100.00
7930;BME280;4010;42.698;23.124;2023-05-14T04:01:06;116653.75;;;-140.64;100.00
7930;BME280;4010;42.698;23.124;2023-05-14T04:03:33;118349.16;;;-140.64;100.00
7930;BME280;4010;42.698;23.124;2023-05-14T04:06:00;118349.16;;;-140.64;100.00
7930;BME280;4010;42.698;23.124;2023-05-14T04:08:27;118349.16;;;-140.64;100.00
7930;BME280;4010;42.698;23.124;2023-05-14T04:10:55;118349.16;;;-140.64;100.00
7930;BME280;4010;42.698;23.124;2023-05-14T04:13:21;118349.16;;;-140.64;100.00
7930;BME280;4010;42.698;23.124;2023-05-14T04:15:48;118349.16;;;-140.64;100.00
7930;BME280;4010;42.698;23.124;2023-05-14T04:18:15;117307.97;;;-140.64;100.00
7930;BME280;4010;42.698;23.124;2023-05-14T04:20:41;116487.16;;;-140.64;100.00
7930;BME280;4010;42.698;23.124;2023-05-14T04:23:08;118349.16;;;-140.64;100.00
7930;BME280;4010;42.698;23.124;2023-05-14T04:25:35;118349.16;;;-140.64;100.00
7930;BME280;4010;42.698;23.124;2023-05-14T04:28:03;118349.16;;;-140.64;100.00
7930;BME280;4010;42.698;23.124;2023-05-14T04:30:30;118349.16;;;-140.64;100.00
7930;BME280;4010;42.698;23.124;2023-05-14T04:32:56;118349.16;;;-140.64;100.00
7930;BME280;4010;42.698;23.124;2023-05-14T04:35:23;118349.16;;;-140.64;100.00
7930;BME280;4010;42.698;23.124;2023-05-14T04:37:50;118349.16;;;-140.64;100.00
7930;BME280;4010;42.698;23.124;2023-05-14T04:40:17;118349.16;;;-140.64;100.00
7930;BME280;4010;42.698;23.124;2023-05-14T04:42:44;118349.16;;;-140.64;100.00
7930;BME280;4010;42.698;23.124;2023-05-14T04:45:12;118349.16;;;-140.64;100.00
7930;BME280;4010;42.698;23.124;2023-05-14T04:47:40;118349.16;;;-140.64;100.00
7930;BME280;4010;42.698;23.124;2023-05-14T04:50:08;118349.16;;;-140.64;100.00
7930;BME280;4010;42.698;23.124;2023-05-14T04:52:35;118349.16;;;-140.64;100.00
7930;BME280;4010;42.698;23.124;2023-05-14T04:55:01;118349.16;;;-140.64;100.00
7930;BME280;4010;42.698;23.124;2023-05-14T04:57:28;118349.16;;;-140.64;100.00
7930;BME280;4010;42.698;23.124;2023-05-14T04:59:55;114192.38;;;-140.64;100.00
7930;BME280;4010;42.698;23.124;2023-05-14T05:02:23;114889.28;;;-140.64;100.00
7930;BME280;4010;42.698;23.124;2023-05-14T05:04:49;114817.34;;;-140.64;100.00
7930;BME280;4010;42.698;23.124;2023-05-14T05:07:16;118349.16;;;-140.64;100.00
7930;BME280;4010;42.698;23.124;2023-05-14T05:09:43;118349.16;;;-140.64;100.00
7930;BME280;4010;42.698;23.124;2023-05-14T05:12:09;118349.16;;;-140.64;100.00
7930;BME280;4010;42.698;23.124;2023-05-14T05:14:36;118349.16;;;-140.64;100.00
7930;BME280;4010;42.698;23.124;2023-05-14T05:17:03;118349.16;;;-140.64;100.00
7930;BME280;4010;42.698;23.124;2023-05-14T05:19:32;118349.16;;;-140.64;100.00
7930;BME280;4010;42.698;23.124;2023-05-14T05:21:59;118349.16;;;-140.64;100.00
7930;BME280;4010;42.698;23.124;2023-05-14T05:24:26;118349.16;;;-140.64;100.00
7930;BME280;4010;42.698;23.124;2023-05-14T05:26:52;118349.16;;;-140.64;100.00
7930;BME280;4010;42.698;23.124;2023-05-14T05:29:20;115469.13;;;-140.64;100.00
7930;BME280;4010;42.698;23.124;2023-05-14T05:31:46;106517.09;;;-140.64;100.00
7930;BME280;4010;42.698;23.124;2023-05-14T05:34:13;103105.78;;;-140.64;100.00
7930;BME280;4010;42.698;23.124;2023-05-14T05:36:41;105467.09;;;-140.64;100.00
7930;BME280;4010;42.698;23.124;2023-05-14T05:39:08;117752.38;;;-140.64;100.00
7930;BME280;4010;42.698;23.124;2023-05-14T05:41:35;118349.16;;;-140.64;100.00
7930;BME280;4010;42.698;23.124;2023-05-14T05:44:01;118349.16;;;-140.64;100.00
7930;BME280;4010;42.698;23.124;2023-05-14T05:46:28;118349.16;;;-140.64;100.00
7930;BME280;4010;42.698;23.124;2023-05-14T05:48:55;118349.16;;;-140.64;100.00
7930;BME280;4010;42.698;23.124;2023-05-14T05:51:21;118349.16;;;-140.64;100.00
7930;BME280;4010;42.698;23.124;2023-05-14T05:53:49;118349.16;;;-140.64;100.00
7930;BME280;4010;42.698;23.124;2023-05-14T05:56:16;118349.16;;;-140.64;100.00
7930;BME280;4010;42.698;23.124;2023-05-14T05:58:43;118349.16;;;-140.64;100.00
7930;BME280;4010;42.698;23.124;2023-05-14T06:01:10;118349.16;;;-140.64;100.00
7930;BME280;4010;42.698;23.124;2023-05-14T06:03:36;118349.16;;;-140.64;100.00
7930;BME280;4010;42.698;23.124;2023-05-14T06:06:03;118349.16;;;-140.64;100.00
7930;BME280;4010;42.698;23.124;2023-05-14T06:08:30;118349.16;;;-140.64;100.00
7930;BME280;4010;42.698;23.124;2023-05-14T06:10:58;118349.16;;;-140.64;100.00
7930;BME280;4010;42.698;23.124;2023-05-14T06:13:25;118349.16;;;-140.64;100.00
7930;BME280;4010;42.698;23.124;2023-05-14T06:15:51;118349.16;;;-140.64;100.00
7930;BME280;4010;42.698;23.124;2023-05-14T06:18:18;118349.16;;;-140.64;100.00
7930;BME280;4010;42.698;23.124;2023-05-14T06:20:45;118349.16;;;-140.64;100.00
7930;BME280;4010;42.698;23.124;2023-05-14T06:23:11;118349.16;;;-140.64;100.00
7930;BME280;4010;42.698;23.124;2023-05-14T06:25:38;118349.16;;;-140.64;100.00
7930;BME280;4010;42.698;23.124;2023-05-14T06:28:06;115822.84;;;-140.64;100.00
7930;BME280;4010;42.698;23.124;2023-05-14T06:30:33;118349.16;;;-140.64;100.00
7930;BME280;4010;42.698;23.124;2023-05-14T06:32:59;118141.31;;;-140.64;100.00
7930;BME280;4010;42.698;23.124;2023-05-14T06:35:26;117024.03;;;-140.64;100.00
7930;BME280;4010;42.698;23.124;2023-05-14T06:37:52;109143.44;;;-140.64;100.00
7930;BME280;4010;42.698;23.124;2023-05-14T06:40:19;105467.09;;;-140.64;100.00
7930;BME280;4010;42.698;23.124;2023-05-14T06:42:46;113923.13;;;-140.64;100.00
7930;BME280;4010;42.698;23.124;2023-05-14T06:45:14;108355.34;;;-140.64;100.00
7930;BME280;4010;42.698;23.124;2023-05-14T06:47:41;107304.78;;;-140.64;100.00
7930;BME280;4010;42.698;23.124;2023-05-14T06:50:08;103105.78;;;-140.64;100.00
7930;BME280;4010;42.698;23.124;2023-05-14T06:52:35;98387.97;;;-140.64;100.00
7930;BME280;4010;42.698;23.124;2023-05-14T06:55:02;100484.00;;;-140.64;100.00
7930;BME280;4010;42.698;23.124;2023-05-14T06:57:29;94722.97;;;-140.64;100.00
7930;BME280;4010;42.698;23.124;2023-05-14T06:59:56;96293.19;;;-140.64;100.00
7930;BME280;4010;42.698;23.124;2023-05-14T07:02:24;94461.31;;;-140.64;100.00
7930;BME280;4010;42.698;23.124;2023-05-14T07:04:50;91584.59;;;-140.64;100.00
7930;BME280;4010;42.698;23.124;2023-05-14T07:07:17;87143.47;;;-140.64;100.00
7930;BME280;4010;42.698;23.124;2023-05-14T07:09:45;90016.50;;;-140.64;100.00
7930;BME280;4010;42.698;23.124;2023-05-14T07:12:12;87926.78;;;-140.64;100.00
7930;BME280;4010;42.698;23.124;2023-05-14T07:14:38;90800.47;;;-140.64;100.00
7930;BME280;4010;42.698;23.124;2023-05-14T07:17:05;87926.78;;;-140.64;100.00
7930;BME280;4010;42.698;23.124;2023-05-14T07:19:33;88971.47;;;-140.64;100.00
7930;BME280;4010;42.698;23.124;2023-05-14T07:22:00;93414.97;;;-140.64;100.00
7930;BME280;4010;42.698;23.124;2023-05-14T07:24:26;100484.00;;;-140.64;100.00
7930;BME280;4010;42.698;23.124;2023-05-14T07:26:53;95769.72;;;-140.64;100.00
7930;BME280;4010;42.698;23.124;2023-05-14T07:29:21;94984.63;;;-140.64;100.00
7930;BME280;4010;42.698;23.124;2023-05-14T07:31:49;90016.50;;;-140.64;100.00
7930;BME280;4010;42.698;23.124;2023-05-14T07:34:16;105204.66;;;-140.64;100.00
7930;BME280;4010;42.698;23.124;2023-05-14T07:36:44;105467.09;;;-140.64;100.00
7930;BME280;4010;42.698;23.124;2023-05-14T07:39:11;108092.66;;;-140.64;100.00
7930;BME280;4010;42.698;23.124;2023-05-14T07:41:37;106779.66;;;-140.64;100.00
7930;BME280;4010;42.698;23.124;2023-05-14T07:44:04;112297.66;;;-140.64;100.00
7930;BME280;4010;42.698;23.124;2023-05-14T07:46:31;109143.44;;;-140.64;100.00
7930;BME280;4010;42.698;23.124;2023-05-14T07:48:57;116339.06;;;-140.64;100.00
7930;BME280;4010;42.698;23.124;2023-05-14T07:51:24;118349.16;;;-140.64;100.00
7930;BME280;4010;42.698;23.124;2023-05-14T07:53:54;118349.16;;;-140.64;100.00
7930;BME280;4010;42.698;23.124;2023-05-14T07:56:20;105467.09;;;-140.64;100.00
7930;BME280;4010;42.698;23.124;2023-05-14T07:58:47;111245.94;;;-140.64;100.00
7930;BME280;4010;42.698;23.124;2023-05-14T08:01:14;114373.28;;;-140.64;100.00
7930;BME280;4010;42.698;23.124;2023-05-14T08:03:40;118349.16;;;-140.64;100.00
7930;BME280;4010;42.698;23.124;2023-05-14T08:06:07;117978.72;;;-140.64;100.00
7930;BME280;4010;42.698;23.124;2023-05-14T08:08:34;118034.28;;;-140.64;100.00
7930;BME280;4010;42.698;23.124;2023-05-14T08:11:02;112034.72;;;-140.64;100.00
7930;BME280;4010;42.698;23.124;2023-05-14T08:13:29;98649.91;;;-140.64;100.00
7930;BME280;4010;42.698;23.124;2023-05-14T08:15:56;92630.41;;;-140.64;100.00
7930;BME280;4010;42.698;23.124;2023-05-14T08:18:23;99173.81;;;-140.64;100.00
7930;BME280;4010;42.698;23.124;2023-05-14T08:20:49;100746.06;;;-140.64;100.00
7930;BME280;4010;42.698;23.124;2023-05-14T08:23:16;107830.03;;;-140.64;100.00
7930;BME280;4010;42.698;23.124;2023-05-14T08:25:43;98387.97;;;-140.64;100.00
7930;BME280;4010;42.698;23.124;2023-05-14T08:28:11;104679.81;;;-140.64;100.00
7930;BME280;4010;42.698;23.124;2023-05-14T08:30:38;105204.66;;;-140.64;100.00
7930;BME280;4010;42.698;23.124;2023-05-14T08:33:05;104417.44;;;-140.64;100.00
7930;BME280;4010;42.698;23.124;2023-05-14T08:35:31;102319.03;;;-140.64;100.00
7930;BME280;4010;42.698;23.124;2023-05-14T08:37:58;110457.34;;;-140.64;100.00
7930;BME280;4010;42.698;23.124;2023-05-14T08:40:25;108355.34;;;-140.64;100.00
7930;BME280;4010;42.698;23.124;2023-05-14T08:42:53;106779.66;;;-140.64;100.00
7930;BME280;4010;42.698;23.124;2023-05-14T08:45:28;104155.06;;;-140.64;100.00
7930;BME280;4010;42.698;23.124;2023-05-14T08:47:58;110720.19;;;-140.64;100.00
7930;BME280;4010;42.698;23.124;2023-05-14T08:50:26;102056.84;;;-140.64;100.00
7930;BME280;4010;42.698;23.124;2023-05-14T08:52:54;101794.66;;;-140.64;100.00
7930;BME280;4010;42.698;23.124;2023-05-14T08:55:21;114106.06;;;-140.64;100.00
7930;BME280;4010;42.698;23.124;2023-05-14T08:57:48;113612.78;;;-140.64;100.00
7930;BME280;4010;42.698;23.124;2023-05-14T09:00:14;111771.75;;;-140.64;100.00
7930;BME280;4010;42.698;23.124;2023-05-14T09:02:44;114005.34;;;-140.64;100.00
7930;BME280;4010;42.698;23.124;2023-05-14T09:05:11;117729.75;;;-140.64;100.00
7930;BME280;4010;42.698;23.124;2023-05-14T09:07:39;116260.91;;;-140.64;100.00
7930;BME280;4010;42.698;23.124;2023-05-14T09:10:07;116271.19;;;-140.64;100.00
7930;BME280;4010;42.698;23.124;2023-05-14T09:12:34;118349.16;;;-140.64;100.00
7930;BME280;4010;42.698;23.124;2023-05-14T09:15:01;116423.38;;;-140.64;100.00
7930;BME280;4010;42.698;23.124;2023-05-14T09:17:29;118349.16;;;-140.64;100.00
7930;BME280;4010;42.698;23.124;2023-05-14T09:19:57;118349.16;;;-140.64;100.00
7930;BME280;4010;42.698;23.124;2023-05-14T09:22:24;118349.16;;;-140.64;100.00
7930;BME280;4010;42.698;23.124;2023-05-14T09:25:11;118349.16;;;-140.64;100.00
7930;BME280;4010;42.698;23.124;2023-05-14T09:27:38;118349.16;;;-140.64;100.00
7930;BME280;4010;42.698;23.124;2023-05-14T09:30:06;118349.16;;;-140.64;100.00
7930;BME280;4010;42.698;23.124;2023-05-14T09:32:37;112560.66;;;-140.64;100.00
7930;BME280;4010;42.698;23.124;2023-05-14T09:35:13;109668.94;;;-140.64;100.00
7930;BME280;4010;42.698;23.124;2023-05-14T09:37:42;118349.16;;;-140.64;100.00
7930;BME280;4010;42.698;23.124;2023-05-14T09:40:09;118349.16;;;-140.64;100.00
7930;BME280;4010;42.698;23.124;2023-05-14T09:42:36;117561.03;;;-140.64;100.00
7930;BME280;4010;42.698;23.124;2023-05-14T09:45:03;109406.19;;;-140.64;100.00
7930;BME280;4010;42.698;23.124;2023-05-14T09:47:30;102843.53;;;-140.64;100.00
7930;BME280;4010;42.698;23.124;2023-05-14T09:49:57;100746.06;;;-140.64;100.00
7930;BME280;4010;42.698;23.124;2023-05-14T09:52:26;102056.84;;;-140.64;100.00
7930;BME280;4010;42.698;23.124;2023-05-14T09:54:52;98649.91;;;-140.64;100.00
7930;BME280;4010;42.698;23.124;2023-05-14T09:57:19;101532.47;;;-140.64;100.00
7930;BME280;4010;42.698;23.124;2023-05-14T09:59:46;94722.97;;;-140.64;100.00
7930;BME280;4010;42.698;23.124;2023-05-14T10:02:15;92368.94;;;-140.64;100.00
7930;BME280;4010;42.698;23.124;2023-05-14T10:04:45;97340.44;;;-140.64;100.00
7930;BME280;4010;42.698;23.124;2023-05-14T10:07:12;91061.81;;;-140.64;100.00
7930;BME280;4010;42.698;23.124;2023-05-14T10:09:42;96816.78;;;-140.64;100.00
7930;BME280;4010;42.698;23.124;2023-05-14T10:12:09;101008.19;;;-140.64;100.00
7930;BME280;4010;42.698;23.124;2023-05-14T10:14:39;95246.28;;;-140.64;100.00
7930;BME280;4010;42.698;23.124;2023-05-14T10:17:09;94984.63;;;-140.64;100.00
7930;BME280;4010;42.698;23.124;2023-05-14T10:19:46;85316.41;;;-140.64;100.00
7930;BME280;4010;42.698;23.124;2023-05-14T10:22:20;79320.09;;;-140.64;100.00
7930;BME280;4010;42.698;23.124;2023-05-14T10:24:49;77497.19;;;-140.64;100.00
7930;BME280;4010;42.698;23.124;2023-05-14T10:27:18;78278.31;;;-140.64;100.00
7930;BME280;4010;42.698;23.124;2023-05-14T10:29:50;82708.03;;;-140.64;100.00
7930;BME280;4010;42.698;23.124;2023-05-14T10:32:19;84011.97;;;-140.64;100.00
7930;BME280;4010;42.698;23.124;2023-05-14T10:34:46;92107.47;;;-140.64;100.00
7930;BME280;4010;42.698;23.124;2023-05-14T10:37:15;89232.72;;;-140.64;100.00
7930;BME280;4010;42.698;23.124;2023-05-14T10:39:46;94461.31;;;-140.64;100.00
7930;BME280;4010;42.698;23.124;2023-05-14T10:42:16;97602.28;;;-140.64;100.00
7930;BME280;4010;42.698;23.124;2023-05-14T10:44:53;97078.59;;;-140.64;100.00
7930;BME280;4010;42.698;23.124;2023-05-14T10:47:22;97602.28;;;-140.64;100.00
7930;BME280;4010;42.698;23.124;2023-05-14T10:49:52;110720.19;;;-140.64;100.00
7930;BME280;4010;42.698;23.124;2023-05-14T10:52:21;116645.53;;;-140.64;100.00
7930;BME280;4010;42.698;23.124;2023-05-14T10:54:48;118349.16;;;-140.64;100.00
7930;BME280;4010;42.698;23.124;2023-05-14T10:57:18;118349.16;;;-140.64;100.00
7930;BME280;4010;42.698;23.124;2023-05-14T10:59:46;118349.16;;;-140.64;100.00
7930;BME280;4010;42.698;23.124;2023-05-14T11:02:24;118349.16;;;-140.64;100.00
7930;BME280;4010;42.698;23.124;2023-05-14T11:04:56;118349.16;;;-140.64;100.00
7930;BME280;4010;42.698;23.124;2023-05-14T11:07:27;118349.16;;;-140.64;100.00
7930;BME280;4010;42.698;23.124;2023-05-14T11:09:59;118349.16;;;-140.64;100.00
7930;BME280;4010;42.698;23.124;2023-05-14T11:12:27;118349.16;;;-140.64;100.00
7930;BME280;4010;42.698;23.124;2023-05-14T11:14:56;117863.50;;;-140.64;100.00
7930;BME280;4010;42.698;23.124;2023-05-14T11:17:24;112823.66;;;-140.64;100.00
7930;BME280;4010;42.698;23.124;2023-05-14T11:19:51;114282.84;;;-140.64;100.00
7930;BME280;4010;42.698;23.124;2023-05-14T11:22:18;109406.19;;;-140.64;100.00
7930;BME280;4010;42.698;23.124;2023-05-14T11:24:45;102319.03;;;-140.64;100.00
7930;BME280;4010;42.698;23.124;2023-05-14T11:27:11;107042.22;;;-140.64;100.00
7930;BME280;4010;42.698;23.124;2023-05-14T11:29:43;107304.78;;;-140.64;100.00
7930;BME280;4010;42.698;23.124;2023-05-14T11:32:11;110457.34;;;-140.64;100.00
7930;BME280;4010;42.698;23.124;2023-05-14T11:34:38;113086.66;;;-140.64;100.00
7930;BME280;4010;42.698;23.124;2023-05-14T11:37:05;107830.03;;;-140.64;100.00
7930;BME280;4010;42.698;23.124;2023-05-14T11:39:33;117143.38;;;-140.64;100.00
7930;BME280;4010;42.698;23.124;2023-05-14T11:42:01;109931.75;;;-140.64;100.00
7930;BME280;4010;42.698;23.124;2023-05-14T11:44:28;108618.03;;;-140.64;100.00
7930;BME280;4010;42.698;23.124;2023-05-14T11:46:57;104155.06;;;-140.64;100.00
7930;BME280;4010;42.698;23.124;2023-05-14T11:49:26;118349.16;;;-140.64;100.00
7930;BME280;4010;42.698;23.124;2023-05-14T11:51:56;118349.16;;;-140.64;100.00
7930;BME280;4010;42.698;23.124;2023-05-14T11:54:25;118349.16;;;-140.64;100.00
7930;BME280;4010;42.698;23.124;2023-05-14T11:56:51;118349.16;;;-140.64;100.00
7930;BME280;4010;42.698;23.124;2023-05-14T11:59:19;118349.16;;;-140.64;100.00
7930;BME280;4010;42.698;23.124;2023-05-14T12:01:46;118349.16;;;-140.64;100.00
7930;BME280;4010;42.698;23.124;2023-05-14T12:04:15;118349.16;;;-140.64;100.00
7930;BME280;4010;42.698;23.124;2023-05-14T12:06:43;118349.16;;;-140.64;100.00
7930;BME280;4010;42.698;23.124;2023-05-14T12:09:11;118349.16;;;-140.64;100.00
7930;BME280;4010;42.698;23.124;2023-05-14T12:11:40;118349.16;;;-140.64;100.00
7930;BME280;4010;42.698;23.124;2023-05-14T12:14:10;118349.16;;;-140.64;100.00
7930;BME280;4010;42.698;23.124;2023-05-14T12:16:39;118349.16;;;-140.64;100.00
7930;BME280;4010;42.698;23.124;2023-05-14T12:19:07;118349.16;;;-140.64;100.00
7930;BME280;4010;42.698;23.124;2023-05-14T12:21:36;118349.16;;;-140.64;100.00
7930;BME280;4010;42.698;23.124;2023-05-14T12:24:04;118349.16;;;-140.64;100.00
7930;BME280;4010;42.698;23.124;2023-05-14T12:26:32;118349.16;;;-140.64;100.00
7930;BME280;4010;42.698;23.124;2023-05-14T12:28:59;118349.16;;;-140.64;100.00
7930;BME280;4010;42.698;23.124;2023-05-14T12:31:29;118349.16;;;-140.64;100.00
7930;BME280;4010;42.698;23.124;2023-05-14T12:33:55;118349.16;;;-140.64;100.00